createdAt,value
2024-04-09T00:02:06.295Z,5.97
2024-04-09T00:04:32.839Z,5.22
2024-04-09T00:07:01.573Z,5.55
2024-04-09T00:09:30.028Z,5.20
2024-04-09T00:11:59.201Z,5.35
2024-04-09T00:14:26.101Z,5.47
2024-04-09T00:16:56.690Z,5.25
2024-04-09T00:19:24.786Z,4.85
2024-04-09T00:21:54.256Z,5.45
2024-04-09T00:24:22.444Z,4.63
2024-04-09T00:26:51.398Z,4.65
2024-04-09T00:29:18.020Z,4.82
2024-04-09T00:31:46.647Z,4.78
2024-04-09T00:34:16.236Z,4.70
2024-04-09T00:36:45.778Z,4.80
2024-04-09T00:39:22.879Z,4.95
2024-04-09T00:41:51.994Z,5.10
2024-04-09T00:44:19.101Z,4.47
2024-04-09T00:46:49.592Z,4.05
2024-04-09T00:49:19.874Z,4.43
2024-04-09T00:51:52.982Z,4.82
2024-04-09T00:54:20.068Z,4.90
2024-04-09T00:56:50.543Z,4.88
2024-04-09T00:59:17.210Z,5.03
2024-04-09T01:01:47.059Z,4.82
2024-04-09T01:04:13.560Z,4.70
2024-04-09T01:06:44.568Z,4.30
2024-04-09T01:09:11.033Z,4.22
2024-04-09T01:11:39.511Z,4.63
2024-04-09T01:14:06.044Z,5.43
2024-04-09T01:16:34.708Z,4.43
2024-04-09T01:19:01.319Z,4.45
2024-04-09T01:21:29.885Z,4.93
2024-04-09T01:23:59.532Z,5.32
2024-04-09T01:26:28.096Z,5.20
2024-04-09T01:28:54.920Z,4.55
2024-04-09T01:31:24.782Z,5.28
2024-04-09T01:33:52.735Z,4.57
2024-04-09T01:36:21.907Z,4.93
2024-04-09T01:38:50.044Z,4.45
2024-04-09T01:41:21.510Z,4.97
2024-04-09T01:43:47.886Z,4.70
2024-04-09T01:46:17.309Z,4.75
2024-04-09T01:48:44.059Z,5.30
2024-04-09T01:51:13.605Z,5.15
2024-04-09T01:53:43.321Z,4.78
2024-04-09T01:56:11.860Z,5.45
2024-04-09T01:58:40.270Z,4.78
2024-04-09T02:01:10.658Z,4.72
2024-04-09T02:03:39.106Z,4.95
2024-04-09T02:06:08.404Z,4.65
2024-04-09T02:08:37.959Z,5.38
2024-04-09T02:11:07.007Z,4.78
2024-04-09T02:13:33.360Z,4.78
2024-04-09T02:16:09.288Z,4.95
2024-04-09T02:18:36.505Z,5.32
2024-04-09T02:21:08.134Z,4.65
2024-04-09T02:23:34.590Z,5.82
2024-04-09T02:26:02.967Z,5.00
2024-04-09T02:28:29.477Z,5.63
2024-04-09T02:30:58.304Z,4.65
2024-04-09T02:33:27.271Z,5.07
2024-04-09T02:35:59.109Z,5.38
2024-04-09T02:38:26.518Z,5.15
2024-04-09T02:40:55.395Z,5.88
2024-04-09T02:43:22.222Z,5.13
2024-04-09T02:45:51.153Z,5.55
2024-04-09T02:48:18.038Z,5.93
2024-04-09T02:50:54.980Z,5.03
2024-04-09T02:53:23.247Z,5.25
2024-04-09T02:56:01.903Z,4.63
2024-04-09T02:58:28.728Z,4.45
2024-04-09T03:00:57.702Z,4.28
2024-04-09T03:03:24.440Z,5.15
2024-04-09T03:05:54.986Z,4.68
2024-04-09T03:08:21.410Z,5.07
2024-04-09T03:10:49.861Z,5.05
2024-04-09T03:13:16.224Z,5.13
2024-04-09T03:15:44.909Z,4.97
2024-04-09T03:18:11.616Z,5.35
2024-04-09T03:20:41.207Z,4.97
2024-04-09T03:23:09.826Z,5.32
2024-04-09T03:25:38.292Z,5.70
2024-04-09T03:28:04.997Z,6.30
2024-04-09T03:30:33.632Z,6.30
2024-04-09T03:33:02.324Z,5.13
2024-04-09T03:35:31.236Z,4.97
2024-04-09T03:37:59.622Z,5.43
2024-04-09T03:40:30.072Z,4.95
2024-04-09T03:42:56.464Z,6.15
2024-04-09T03:45:24.926Z,5.63
2024-04-09T03:47:51.447Z,5.50
2024-04-09T03:50:19.838Z,5.35
2024-04-09T03:52:46.280Z,4.97
2024-04-09T03:55:14.841Z,5.57
2024-04-09T03:57:43.254Z,5.95
2024-04-09T04:00:12.997Z,5.57
2024-04-09T04:02:40.159Z,5.32
2024-04-09T04:05:10.374Z,5.50
2024-04-09T04:07:36.846Z,5.32
2024-04-09T04:10:07.297Z,5.50
2024-04-09T04:12:36.129Z,5.60
2024-04-09T04:15:07.448Z,6.18
2024-04-09T04:17:34.012Z,5.60
2024-04-09T04:20:02.573Z,5.47
2024-04-09T04:22:29.930Z,5.07
2024-04-09T04:24:58.411Z,5.82
2024-04-09T04:27:24.870Z,4.85
2024-04-09T04:29:53.370Z,5.18
2024-04-09T04:32:21.892Z,5.20
2024-04-09T04:34:53.995Z,5.28
2024-04-09T04:37:20.423Z,4.70
2024-04-09T04:39:48.845Z,5.07
2024-04-09T04:42:16.422Z,5.20
2024-04-09T04:44:44.988Z,5.28
2024-04-09T04:47:11.387Z,5.40
2024-04-09T04:49:41.977Z,4.70
2024-04-09T04:52:08.519Z,5.03
2024-04-09T04:54:37.036Z,5.30
2024-04-09T04:57:03.823Z,5.13
2024-04-09T04:59:32.351Z,5.95
2024-04-09T05:01:59.322Z,4.72
2024-04-09T05:04:27.869Z,5.00
2024-04-09T05:06:56.353Z,5.50
2024-04-09T05:09:24.850Z,4.97
2024-04-09T05:11:51.309Z,5.03
2024-04-09T05:14:19.763Z,5.47
2024-04-09T05:16:46.137Z,5.22
2024-04-09T05:19:14.781Z,4.80
2024-04-09T05:21:41.363Z,4.93
2024-04-09T05:24:13.098Z,4.88
2024-04-09T05:26:39.501Z,4.72
2024-04-09T05:29:08.430Z,5.63
2024-04-09T05:31:34.797Z,5.10
2024-04-09T05:34:04.117Z,4.75
2024-04-09T05:36:32.966Z,5.22
2024-04-09T05:39:01.529Z,5.18
2024-04-09T05:41:29.981Z,5.55
2024-04-09T05:43:58.667Z,4.65
2024-04-09T05:46:25.023Z,5.35
2024-04-09T05:48:53.578Z,4.63
2024-04-09T05:51:20.047Z,4.82
2024-04-09T05:53:48.473Z,5.40
2024-04-09T05:56:14.784Z,5.03
2024-04-09T05:58:45.310Z,5.13
2024-04-09T06:01:11.865Z,4.53
2024-04-09T06:03:40.570Z,5.10
2024-04-09T06:06:07.093Z,4.93
2024-04-09T06:08:35.513Z,5.05
2024-04-09T06:11:04.053Z,4.93
2024-04-09T06:13:32.492Z,5.30
2024-04-09T06:16:00.828Z,4.60
2024-04-09T06:18:29.350Z,4.60
2024-04-09T06:20:55.832Z,4.90
2024-04-09T06:23:24.943Z,4.93
2024-04-09T06:25:54.500Z,4.43
2024-04-09T06:28:22.968Z,5.38
2024-04-09T06:30:49.572Z,4.18
2024-04-09T06:33:20.238Z,4.70
2024-04-09T06:35:46.851Z,4.07
2024-04-09T06:38:15.248Z,5.32
2024-04-09T06:40:42.318Z,4.32
2024-04-09T06:43:11.249Z,4.88
2024-04-09T06:45:37.612Z,4.50
2024-04-09T06:48:07.318Z,4.88
2024-04-09T06:50:36.170Z,5.38
2024-04-09T06:53:04.632Z,4.75
2024-04-09T06:55:31.041Z,4.65
2024-04-09T06:57:59.403Z,5.25
2024-04-09T07:00:27.071Z,5.10
2024-04-09T07:02:55.582Z,4.88
2024-04-09T07:05:22.235Z,4.95
2024-04-09T07:07:52.701Z,5.70
2024-04-09T07:10:19.092Z,4.85
2024-04-09T07:12:47.608Z,4.82
2024-04-09T07:15:15.157Z,4.95
2024-04-09T07:17:43.671Z,5.20
2024-04-09T07:20:10.132Z,5.38
2024-04-09T07:22:38.546Z,4.57
2024-04-09T07:25:08.200Z,5.43
2024-04-09T07:27:36.891Z,5.07
2024-04-09T07:30:04.305Z,5.38
2024-04-09T07:32:32.839Z,5.75
2024-04-09T07:34:59.530Z,5.20
2024-04-09T07:37:27.978Z,4.95
2024-04-09T07:39:54.371Z,4.65
2024-04-09T07:42:25.175Z,4.75
2024-04-09T07:44:51.611Z,4.68
2024-04-09T07:47:21.711Z,4.50
2024-04-09T07:49:49.942Z,5.10
2024-04-09T07:52:19.520Z,4.40
2024-04-09T07:54:46.088Z,3.97
2024-04-09T07:57:15.312Z,4.78
2024-04-09T07:59:44.386Z,4.40
2024-04-09T08:02:12.831Z,4.95
2024-04-09T08:04:39.845Z,4.35
2024-04-09T08:07:08.466Z,4.85
2024-04-09T08:09:35.869Z,5.10
2024-04-09T08:12:05.174Z,4.15
2024-04-09T08:14:32.054Z,3.97
2024-04-09T08:17:02.602Z,3.85
2024-04-09T08:19:30.609Z,4.40
2024-04-09T08:21:59.221Z,4.75
2024-04-09T08:24:25.765Z,4.30
2024-04-09T08:26:54.186Z,4.13
2024-04-09T08:29:20.513Z,4.18
2024-04-09T08:31:50.856Z,3.78
2024-04-09T08:34:20.568Z,4.55
2024-04-09T08:36:50.113Z,4.68
2024-04-09T08:39:16.728Z,4.47
2024-04-09T08:41:45.226Z,4.80
2024-04-09T08:44:13.158Z,4.55
2024-04-09T08:46:41.705Z,4.85
2024-04-09T08:49:09.809Z,4.93
2024-04-09T08:51:43.074Z,4.55
2024-04-09T08:54:09.756Z,4.90
2024-04-09T08:56:38.240Z,4.60
2024-04-09T08:59:05.134Z,4.25
2024-04-09T09:01:33.984Z,5.63
2024-04-09T09:04:00.786Z,4.78
2024-04-09T09:06:30.736Z,4.70
2024-04-09T09:08:59.250Z,4.75
2024-04-09T09:11:27.667Z,5.35
2024-04-09T09:14:04.820Z,4.18
2024-04-09T09:16:34.002Z,4.97
2024-04-09T09:19:05.008Z,4.60
2024-04-09T09:21:34.107Z,4.75
2024-04-09T09:24:02.813Z,4.80
2024-04-09T09:26:31.309Z,4.90
2024-04-09T09:29:04.651Z,5.55
2024-04-09T09:31:34.289Z,4.65
2024-04-09T09:34:07.938Z,4.70
2024-04-09T09:36:39.489Z,5.30
2024-04-09T09:39:09.878Z,5.15
2024-04-09T09:41:39.518Z,5.65
2024-04-09T09:44:08.974Z,5.00
2024-04-09T09:46:39.177Z,4.93
2024-04-09T09:49:07.059Z,4.63
2024-04-09T09:51:35.611Z,4.68
2024-04-09T09:54:02.654Z,5.13
2024-04-09T09:56:33.612Z,5.07
2024-04-09T09:59:00.936Z,4.57
2024-04-09T10:01:30.449Z,4.20
2024-04-09T10:03:57.105Z,4.88
2024-04-09T10:06:29.822Z,4.18
2024-04-09T10:08:56.297Z,4.55
2024-04-09T10:11:24.992Z,4.95
2024-04-09T10:13:53.535Z,3.70
2024-04-09T10:16:25.000Z,4.97
2024-04-09T10:18:52.234Z,4.55
2024-04-09T10:21:28.913Z,4.38
2024-04-09T10:23:59.617Z,4.85
2024-04-09T10:26:29.416Z,5.15
2024-04-09T10:29:04.591Z,4.88
2024-04-09T10:31:33.178Z,4.05
2024-04-09T10:33:59.707Z,4.95
2024-04-09T10:36:28.326Z,5.18
2024-04-09T10:38:56.452Z,4.55
2024-04-09T10:41:24.810Z,4.80
2024-04-09T10:43:51.140Z,5.25
2024-04-09T10:46:21.760Z,5.30
2024-04-09T10:48:49.129Z,5.38
2024-04-09T10:51:19.934Z,5.75
2024-04-09T10:53:48.868Z,5.70
2024-04-09T10:56:17.334Z,5.63
2024-04-09T10:58:44.630Z,5.00
2024-04-09T11:01:16.550Z,5.60
2024-04-09T11:03:45.561Z,5.00
2024-04-09T11:06:16.701Z,5.32
2024-04-09T11:08:43.367Z,5.22
2024-04-09T11:11:12.347Z,5.97
2024-04-09T11:13:39.403Z,4.88
2024-04-09T11:16:07.887Z,4.82
2024-04-09T11:18:34.965Z,4.70
2024-04-09T11:21:06.011Z,6.43
2024-04-09T11:23:33.180Z,5.90
2024-04-09T11:26:03.492Z,5.38
2024-04-09T11:28:31.499Z,5.95
2024-04-09T11:31:04.694Z,5.45
2024-04-09T11:33:31.596Z,5.35
2024-04-09T11:36:01.084Z,6.07
2024-04-09T11:38:32.000Z,5.90
2024-04-09T11:41:00.441Z,5.53
2024-04-09T11:43:26.818Z,5.95
2024-04-09T11:46:01.568Z,6.32
2024-04-09T11:48:28.716Z,5.53
2024-04-09T11:50:57.393Z,5.75
2024-04-09T11:53:24.340Z,5.88
2024-04-09T11:55:56.737Z,6.03
2024-04-09T11:58:23.095Z,5.55
2024-04-09T12:00:51.750Z,5.70
2024-04-09T12:03:18.387Z,5.30
2024-04-09T12:05:47.256Z,5.50
2024-04-09T12:08:13.669Z,5.82
2024-04-09T12:10:42.240Z,5.13
2024-04-09T12:13:10.765Z,5.03
2024-04-09T12:15:39.655Z,5.57
2024-04-09T12:18:06.550Z,6.13
2024-04-09T12:20:35.090Z,6.00
2024-04-09T12:23:01.542Z,5.57
2024-04-09T12:25:30.094Z,4.15
2024-04-09T12:27:56.475Z,5.40
2024-04-09T12:30:27.065Z,4.15
2024-04-09T12:32:53.756Z,3.25
2024-04-09T12:35:23.037Z,2.55
2024-04-09T12:37:50.650Z,2.25
2024-04-09T12:40:19.062Z,2.78
2024-04-09T12:42:45.636Z,2.55
2024-04-09T12:45:14.129Z,2.10
2024-04-09T12:47:42.674Z,1.73
2024-04-09T12:50:14.197Z,1.90
2024-04-09T12:52:40.694Z,2.20
2024-04-09T12:55:10.842Z,1.90
2024-04-09T12:57:37.289Z,2.10
2024-04-09T13:00:22.780Z,1.75
2024-04-09T13:02:57.642Z,1.90
2024-04-09T13:05:26.869Z,2.33
2024-04-09T13:07:53.794Z,1.88
2024-04-09T13:10:22.318Z,1.45
2024-04-09T13:12:49.016Z,2.00
2024-04-09T13:16:47.196Z,2.17
2024-04-09T13:18:06.931Z,1.95
2024-04-09T13:20:35.702Z,2.03
2024-04-09T13:23:03.765Z,1.55
2024-04-09T13:25:32.693Z,1.83
2024-04-09T13:27:59.097Z,1.70
2024-04-09T13:30:28.257Z,1.98
2024-04-09T13:32:54.755Z,2.10
2024-04-09T13:35:25.547Z,1.75
2024-04-09T13:37:51.994Z,1.75
2024-04-09T13:40:20.822Z,1.38
2024-04-09T13:42:47.271Z,1.25
2024-04-09T13:45:16.460Z,1.40
2024-04-09T13:47:45.570Z,1.88
2024-04-09T13:50:17.255Z,1.00
2024-04-09T13:52:46.008Z,1.08
2024-04-09T13:55:14.517Z,1.40
2024-04-09T13:57:41.041Z,1.55
2024-04-09T14:00:12.337Z,1.00
2024-04-09T14:02:39.623Z,1.20
2024-04-09T14:05:10.248Z,1.35
2024-04-09T14:07:36.818Z,1.13
2024-04-09T14:10:08.892Z,0.98
2024-04-09T14:12:35.463Z,1.10
2024-04-09T14:15:06.377Z,1.13
2024-04-09T14:17:35.805Z,1.30
2024-04-09T14:20:08.968Z,0.90
2024-04-09T14:22:35.567Z,1.02
2024-04-09T14:25:08.839Z,1.58
2024-04-09T14:27:35.366Z,1.25
2024-04-09T14:30:06.438Z,1.30
2024-04-09T14:32:33.078Z,1.02
2024-04-09T14:35:02.341Z,1.00
2024-04-09T14:37:28.908Z,1.13
2024-04-09T14:39:57.436Z,1.05
2024-04-09T14:42:25.850Z,1.50
2024-04-09T14:44:54.269Z,1.50
2024-04-09T14:47:21.055Z,1.45
2024-04-09T14:49:49.780Z,1.27
2024-04-09T14:52:16.160Z,1.35
2024-04-09T14:54:44.776Z,1.10
2024-04-09T14:57:11.183Z,1.13
2024-04-09T14:59:42.595Z,1.20
2024-04-09T15:02:11.288Z,0.93
2024-04-09T15:04:40.089Z,1.05
2024-04-09T15:07:06.832Z,1.00
2024-04-09T15:09:39.014Z,1.10
2024-04-09T15:12:06.754Z,0.95
2024-04-09T15:14:35.361Z,0.80
2024-04-09T15:17:04.507Z,0.98
2024-04-09T15:19:33.630Z,0.90
2024-04-09T15:22:00.115Z,0.88
2024-04-09T15:24:28.551Z,1.50
2024-04-09T15:26:54.958Z,1.33
2024-04-09T15:29:24.530Z,1.10
2024-04-09T15:31:51.251Z,1.30
2024-04-09T15:34:21.949Z,1.40
2024-04-09T15:36:48.646Z,1.55
2024-04-09T15:39:17.113Z,1.30
2024-04-09T15:41:43.770Z,1.38
2024-04-09T15:44:13.127Z,1.30
2024-04-09T15:46:39.940Z,1.50
2024-04-09T15:49:08.518Z,1.60
2024-04-09T15:51:37.286Z,1.50
2024-04-09T15:54:27.638Z,1.80
2024-04-09T15:56:54.025Z,1.80
2024-04-09T15:59:22.548Z,1.65
2024-04-09T16:01:49.482Z,1.88
2024-04-09T16:04:18.146Z,1.88
2024-04-09T16:06:47.259Z,1.73
2024-04-09T16:09:16.370Z,1.55
2024-04-09T16:11:43.006Z,1.52
2024-04-09T16:14:11.560Z,1.73
2024-04-09T16:16:39.115Z,1.40
2024-04-09T16:19:10.803Z,1.92
2024-04-09T16:21:40.589Z,1.40
2024-04-09T16:24:09.132Z,0.90
2024-04-09T16:26:37.816Z,1.23
2024-04-09T16:29:04.449Z,1.13
2024-04-09T16:31:32.960Z,0.70
2024-04-09T16:33:59.349Z,1.10
2024-04-09T16:36:27.997Z,1.00
2024-04-09T16:38:54.416Z,1.10
2024-04-09T16:41:25.823Z,0.85
2024-04-09T16:43:54.305Z,1.13
2024-04-09T16:46:23.267Z,1.00
2024-04-09T16:48:50.204Z,1.13
2024-04-09T16:51:18.752Z,1.25
2024-04-09T16:53:45.149Z,0.77
2024-04-09T16:56:13.568Z,0.85
2024-04-09T16:58:42.620Z,1.08
2024-04-09T17:01:11.292Z,1.00
2024-04-09T17:03:37.845Z,0.80
2024-04-09T17:06:06.713Z,0.80
2024-04-09T17:08:33.186Z,0.80
2024-04-09T17:11:02.919Z,1.20
2024-04-09T17:13:30.516Z,1.00
2024-04-09T17:16:01.015Z,1.00
2024-04-09T17:18:27.649Z,1.02
2024-04-09T17:20:56.158Z,1.25
2024-04-09T17:23:24.414Z,1.17
2024-04-09T17:26:01.922Z,1.20
2024-04-09T17:28:39.598Z,1.17
2024-04-09T17:31:10.044Z,1.05
2024-04-09T17:33:49.016Z,1.20
2024-04-09T17:36:15.889Z,1.00
2024-04-09T17:39:01.286Z,1.35
2024-04-09T17:41:33.029Z,1.10
2024-04-09T17:44:22.666Z,0.98
2024-04-09T17:46:58.812Z,1.10
2024-04-09T17:49:43.553Z,1.40
2024-04-09T17:52:17.092Z,1.00
2024-04-09T17:54:54.766Z,1.00
2024-04-09T17:57:40.214Z,0.93
2024-04-09T18:00:24.764Z,1.10
2024-04-09T18:03:14.070Z,0.70
2024-04-09T18:05:46.919Z,0.95
2024-04-09T18:08:13.906Z,1.00
2024-04-09T18:10:44.979Z,1.20
2024-04-09T18:13:11.493Z,1.20
2024-04-09T18:15:39.906Z,0.88
2024-04-09T18:18:08.604Z,1.25
2024-04-09T18:20:37.283Z,1.00
2024-04-09T18:23:04.067Z,1.00
2024-04-09T18:25:33.586Z,1.20
2024-04-09T18:28:00.009Z,1.55
2024-04-09T18:30:28.485Z,1.27
2024-04-09T18:32:57.975Z,1.48
2024-04-09T18:35:31.016Z,1.45
2024-04-09T18:37:57.450Z,1.02
2024-04-09T18:40:25.946Z,1.55
2024-04-09T18:42:52.343Z,1.48
2024-04-09T18:45:20.807Z,1.48
2024-04-09T18:47:47.500Z,1.45
2024-04-09T18:50:16.189Z,1.13
2024-04-09T18:52:44.833Z,1.00
2024-04-09T18:55:13.744Z,0.90
2024-04-09T18:57:40.379Z,0.82
2024-04-09T19:00:11.250Z,0.95
2024-04-09T19:02:38.587Z,0.90
2024-04-09T19:05:07.300Z,0.80
2024-04-09T19:07:33.760Z,1.10
2024-04-09T19:10:05.556Z,1.00
2024-04-09T19:12:34.038Z,1.00
2024-04-09T19:15:00.573Z,0.90
2024-04-09T19:17:29.175Z,0.75
2024-04-09T19:19:55.791Z,1.10
2024-04-09T19:22:24.231Z,0.88
2024-04-09T19:24:50.623Z,1.08
2024-04-09T19:27:21.091Z,0.85
2024-04-09T19:29:47.537Z,0.98
2024-04-09T19:32:16.071Z,0.90
2024-04-09T19:34:42.634Z,0.90
2024-04-09T19:37:11.171Z,1.10
2024-04-09T19:39:37.595Z,1.10
2024-04-09T19:42:06.772Z,1.20
2024-04-09T19:44:35.615Z,1.10
2024-04-09T19:47:04.137Z,1.00
2024-04-09T19:49:30.620Z,1.48
2024-04-09T19:51:59.065Z,1.00
2024-04-09T19:54:25.835Z,0.80
2024-04-09T19:56:54.326Z,1.00
2024-04-09T19:59:20.743Z,1.30
2024-04-09T20:01:51.400Z,1.08
2024-04-09T20:04:20.833Z,1.17
2024-04-09T20:06:49.312Z,1.30
2024-04-09T20:09:15.738Z,1.10
2024-04-09T20:11:44.508Z,1.13
2024-04-09T20:14:11.104Z,1.13
2024-04-09T20:16:39.730Z,1.13
2024-04-09T20:19:08.503Z,1.25
2024-04-09T20:21:37.303Z,1.02
2024-04-09T20:24:04.940Z,1.35
2024-04-09T20:26:33.600Z,1.30
2024-04-09T20:29:03.232Z,1.40
2024-04-09T20:31:38.956Z,1.33
2024-04-09T20:34:08.376Z,1.92
2024-04-09T20:36:37.695Z,1.45
2024-04-09T20:39:04.911Z,1.60
2024-04-09T20:41:35.578Z,2.15
2024-04-09T20:44:03.077Z,1.75
2024-04-09T20:46:32.131Z,2.28
2024-04-09T20:48:58.986Z,1.83
2024-04-09T20:51:30.126Z,1.70
2024-04-09T20:53:56.890Z,1.80
2024-04-09T20:56:32.966Z,1.90
2024-04-09T20:58:59.547Z,1.70
2024-04-09T21:01:28.060Z,1.90
2024-04-09T21:03:56.425Z,2.00
2024-04-09T21:06:25.386Z,2.30
2024-04-09T21:08:53.831Z,2.22
2024-04-09T21:11:22.397Z,1.75
2024-04-09T21:13:48.954Z,1.85
2024-04-09T21:16:19.464Z,1.60
2024-04-09T21:18:46.404Z,1.98
2024-04-09T21:21:14.894Z,2.08
2024-04-09T21:23:41.293Z,2.20
2024-04-09T21:26:11.959Z,1.83
2024-04-09T21:28:38.396Z,2.33
2024-04-09T21:31:07.010Z,2.10
2024-04-09T21:33:33.546Z,1.80
2024-04-09T21:36:02.049Z,1.77
2024-04-09T21:38:28.553Z,1.75
2024-04-09T21:41:05.601Z,1.60
2024-04-09T21:43:34.127Z,1.98
2024-04-09T21:46:02.650Z,1.92
2024-04-09T21:48:29.269Z,1.80
2024-04-09T21:50:58.000Z,2.03
2024-04-09T21:53:24.854Z,1.58
2024-04-09T21:55:53.661Z,2.17
2024-04-09T21:58:20.124Z,1.60
2024-04-09T22:00:54.198Z,1.60
2024-04-09T22:03:20.826Z,1.67
2024-04-09T22:05:50.472Z,2.05
2024-04-09T22:08:17.048Z,1.85
2024-04-09T22:10:46.805Z,1.90
2024-04-09T22:13:13.276Z,2.08
2024-04-09T22:15:42.479Z,2.08
2024-04-09T22:18:11.627Z,1.52
2024-04-09T22:20:40.854Z,1.77
2024-04-09T22:23:07.927Z,1.75
2024-04-09T22:25:36.429Z,1.85
2024-04-09T22:28:02.981Z,1.80
2024-04-09T22:30:31.438Z,2.30
2024-04-09T22:32:58.510Z,2.17
2024-04-09T22:35:29.344Z,2.33
2024-04-09T22:37:55.976Z,2.30
2024-04-09T22:40:25.012Z,2.55
2024-04-09T22:42:51.418Z,2.55
2024-04-09T22:45:20.086Z,2.50
2024-04-09T22:47:46.672Z,2.90
2024-04-09T22:50:15.212Z,2.45
2024-04-09T22:52:44.770Z,2.42
2024-04-09T22:55:13.230Z,2.15
2024-04-09T22:57:42.341Z,2.35
2024-04-09T23:00:13.002Z,2.35
2024-04-09T23:02:39.753Z,1.70
2024-04-09T23:05:10.672Z,2.20
2024-04-09T23:07:37.249Z,2.38
2024-04-09T23:10:08.522Z,1.92
2024-04-09T23:12:36.106Z,1.60
2024-04-09T23:15:04.687Z,1.70
2024-04-09T23:17:31.230Z,1.90
2024-04-09T23:19:59.831Z,1.50
2024-04-09T23:22:26.268Z,1.55
2024-04-09T23:24:55.241Z,1.10
2024-04-09T23:27:23.629Z,1.38
2024-04-09T23:29:52.097Z,1.15
2024-04-09T23:32:18.786Z,1.27
2024-04-09T23:34:47.493Z,1.58
2024-04-09T23:37:13.936Z,1.33
2024-04-09T23:39:42.359Z,1.30
2024-04-09T23:42:08.719Z,1.30
2024-04-09T23:44:39.187Z,1.50
2024-04-09T23:47:05.772Z,1.70
2024-04-09T23:49:34.225Z,1.58
2024-04-09T23:52:00.612Z,1.50
2024-04-09T23:54:29.016Z,1.58
2024-04-09T23:56:55.489Z,1.48
2024-04-09T23:59:24.020Z,1.42
